Flight Track Log - Related Links

Times and Time Zones

All times are in EDT time to prevent confusion due to time zone crossing. See the DAL2069 flight status page for this flight to view local times or setup timezone preferences in your user account.

Time Position Orientation Groundspeed Altitude Reporting Facility
EDT Latitude Longitude Course Direction KTS MPH feet Rate Location/Type
Fri 10:04:29 AM 33.6333 -84.5000 166° South 212 244 3,800  Level Atlanta TRACON
Fri 10:05:29 AM 33.6333 -84.6000 270° West 270 311 6,800 3,000 Climbing Atlanta TRACON
Fri 10:06:57 AM 33.5692 -84.6844 228° Southwest 285 328 11,200 2,432 Climbing Atlanta Center
Fri 10:07:00 AM 33.2270 -84.1678 160° South  Level Estimated
Fri 10:07:57 AM 33.4881 -84.6192 146° Southeast 288 331 12,800  Level Atlanta Center
Fri 10:08:00 AM 33.1147 -84.1332 166° South  Level FlightAware Approximate
Fri 10:08:57 AM 33.4008 -84.5414 143° Southeast 347 399 15,400  Level Atlanta Center
Fri 10:09:00 AM 33.0025 -84.0987 166° South  Level FlightAware Approximate
Fri 10:09:57 AM 33.3114 -84.4564 142° Southeast 398 458 17,800  Level Atlanta Center
Fri 10:10:57 AM 33.2136 -84.3714 144° Southeast 423 487 19,800 2,150 Climbing Atlanta Center
Fri 10:11:57 AM 33.1156 -84.2844 143° Southeast 436 502 22,100 1,900 Climbing Atlanta Center
Fri 10:12:57 AM 33.0239 -84.2022 143° Southeast 441 507 23,600 1,350 Climbing Atlanta Center
Fri 10:13:57 AM 32.9072 -84.1328 153° Southeast 451 519 24,800 1,050 Climbing Atlanta Center
Fri 10:14:57 AM 32.7756 -84.0833 162° South 471 542 25,700 1,650 Climbing Atlanta Center
Fri 10:15:57 AM 32.6400 -84.0264 161° South 497 572 28,100 2,250 Climbing Atlanta Center
Fri 10:16:57 AM 32.5125 -83.9772 162° South 503 579 30,200 1,950 Climbing Atlanta Center
Fri 10:17:57 AM 32.3853 -83.9233 160° South 498 573 32,000 1,400 Climbing Atlanta Center
Fri 10:18:57 AM 32.2558 -83.8694 161° South 498 573 33,000 500 Climbing Atlanta Center
Fri 10:19:57 AM 32.1222 -83.8156 161° South 498 573 33,000 388 Level Atlanta Center
Fri 10:21:16 AM 31.9319 -83.7372 161° South 504 580 33,900 814 Climbing Jacksonville Center
Fri 10:22:17 AM 31.8092 -83.6894 162° South 514 592 34,900 496 Climbing Jacksonville Center
Fri 10:23:17 AM 31.6781 -83.6225 157° South 514 592 34,900 50 Level Jacksonville Center
Fri 10:24:17 AM 31.5489 -83.5386 151° Southeast 524 603 35,000 50 Climbing Jacksonville Center
Fri 10:25:17 AM 31.4261 -83.4550 150° Southeast 519 597 35,000  Level Jacksonville Center
Fri 10:26:17 AM 31.3033 -83.3667 148° Southeast 514 592 35,000 -50 Level Jacksonville Center
Fri 10:27:17 AM 31.1825 -83.2836 150° Southeast 509 586 34,900 -807 Descending Jacksonville Center
Fri 10:28:16 AM 31.0594 -83.1981 149° Southeast 509 586 33,400 -2,200 Descending Jacksonville Center
Fri 10:29:17 AM 30.9408 -83.1156 149° Southeast 504 580 30,500 -2,975 Descending Jacksonville Center
Fri 10:30:17 AM 30.8219 -83.0328 149° Southeast 504 580 27,400 -1,815 Descending Jacksonville Center
Fri 10:31:16 AM 30.7069 -82.9506 148° Southeast 497 572 26,900 -202 Descending Jacksonville Center
Fri 10:32:16 AM 30.5756 -82.8683 152° Southeast 497 572 27,000 50 Climbing Jacksonville Center
Fri 10:33:17 AM 30.4753 -82.7939 147° Southeast 485 558 27,000  Level Jacksonville Center
Fri 10:34:17 AM 30.3644 -82.7169 149° Southeast 480 552 27,000 -450 Level Jacksonville Center
Fri 10:35:17 AM 30.2328 -82.6353 152° Southeast 475 547 26,100 -900 Descending Jacksonville Center
Fri 10:36:17 AM 30.1219 -82.5564 148° Southeast 475 547 25,200 -600 Descending Jacksonville Center
Fri 10:37:17 AM 30.0194 -82.4847 149° Southeast 475 547 24,900 -100 Descending Jacksonville Center
Fri 10:38:17 AM 29.9003 -82.4206 155° Southeast 475 547 25,000  Climbing Jacksonville Center
Fri 10:39:17 AM 29.7789 -82.3614 157° South 475 547 24,900 -600 Descending Jacksonville Center
Fri 10:40:17 AM 29.6575 -82.3022 157° South 470 541 23,800 -1,400 Descending Jacksonville Center
Fri 10:41:17 AM 29.5406 -82.2481 158° South 470 541 22,100 -1,700 Descending Jacksonville Center
Fri 10:42:17 AM 29.4147 -82.1869 157° South 459 528 20,400 -1,800 Descending Jacksonville Center
Fri 10:43:17 AM 29.2997 -82.1306 157° South 453 521 18,500 -2,100 Descending Jacksonville Center
Fri 10:44:17 AM 29.1889 -82.0792 158° South 448 516 16,200 -2,350 Descending Jacksonville Center
Fri 10:45:17 AM 29.0842 -82.0278 157° South 435 501 13,800 -2,300 Descending Jacksonville Center
Fri 10:46:17 AM 28.9814 -81.9786 157° South 419 482 11,600 -1,450 Descending Jacksonville Center
Fri 10:47:17 AM 28.8914 -81.9344 157° South 390 449 10,900 -650 Descending Jacksonville Center
Fri 10:48:17 AM 28.8322 -81.8497 129° Southeast 344 396 10,300 -650 Descending Jacksonville Center
Fri 10:49:17 AM 28.7878 -81.7697 122° Southeast 318 366 9,600 -700 Descending Jacksonville Center
Fri 10:50:17 AM 28.7433 -81.6967 125° Southeast 298 343 8,900 -350 Descending Jacksonville Center
Fri 10:51:17 AM 28.7092 -81.6308 121° Southeast 268 308 8,900  Level Jacksonville Center
Fri 10:52:17 AM 28.6753 -81.5628 120° Southeast 252 290 8,900  Level Jacksonville Center
Fri 10:53:17 AM 28.6433 -81.5017 121° Southeast 241 277 8,900  Level Jacksonville Center
Fri 10:54:17 AM 28.6114 -81.4406 121° Southeast 229 264 8,900 43 Level Jacksonville Center
Fri 10:55:37 AM 28.5333 -81.4167 165° South 231 266 9,000 -370 Climbing Orlando TRACON
Fri 10:56:43 AM 28.4667 -81.4167 180° South 226 260 8,000 -1,000 Descending Orlando TRACON
Fri 10:57:37 AM 28.4000 -81.4167 180° South 220 253 7,000 -1,100 Descending Orlando TRACON
Fri 10:58:43 AM 28.3333 -81.4167 180° South 223 257 5,800 -1,091 Descending Orlando TRACON
Fri 10:59:38 AM 28.2833 -81.4167 180° South 216 249 4,800 -1,190 Descending Orlando TRACON
Fri 11:00:44 AM 28.2500 -81.3667 127° Southeast 194 223 3,400 -1,095 Descending Orlando TRACON
Fri 11:01:44 AM 28.2667 -81.3333 60° Northeast 184 212 2,500 -810 Descending Orlando TRACON
Fri 11:02:50 AM 28.3333 -81.3333 360° North 177 204 1,700 -694 Descending Orlando TRACON
Fri 11:03:45 AM 28.3667 -81.3333 360° North 146 168 1,100 -694 Descending Orlando TRACON
Fri 11:04:51 AM 28.4167 -81.3333 360° North 135 155 300 -727 Descending Orlando TRACON

Login

Don't have an account? Register now (free) for customized features, flight alerts, and more!